sensor_id;sensor_type;location;lat;lon;timestamp;P1;durP1;ratioP1;P2;durP2;ratioP2
14470;SDS011;7321;50.802;4.336;2024-02-16T00:00:48;3.03;;;2.67;;
14470;SDS011;7321;50.802;4.336;2024-02-16T00:03:13;3.80;;;2.70;;
14470;SDS011;7321;50.802;4.336;2024-02-16T00:05:39;3.20;;;2.47;;
14470;SDS011;7321;50.802;4.336;2024-02-16T00:08:05;3.37;;;2.50;;
14470;SDS011;7321;50.802;4.336;2024-02-16T00:10:31;5.07;;;3.10;;
14470;SDS011;7321;50.802;4.336;2024-02-16T00:12:57;5.57;;;2.93;;
14470;SDS011;7321;50.802;4.336;2024-02-16T00:15:23;4.73;;;3.10;;
14470;SDS011;7321;50.802;4.336;2024-02-16T00:17:49;4.50;;;2.97;;
14470;SDS011;7321;50.802;4.336;2024-02-16T00:20:15;2.90;;;2.60;;
14470;SDS011;7321;50.802;4.336;2024-02-16T00:22:41;4.47;;;2.60;;
14470;SDS011;7321;50.802;4.336;2024-02-16T00:25:06;3.10;;;2.80;;
14470;SDS011;7321;50.802;4.336;2024-02-16T00:27:32;4.53;;;2.93;;
14470;SDS011;7321;50.802;4.336;2024-02-16T00:29:58;3.13;;;2.40;;
14470;SDS011;7321;50.802;4.336;2024-02-16T00:32:24;3.67;;;2.80;;
14470;SDS011;7321;50.802;4.336;2024-02-16T00:34:54;3.43;;;2.60;;
14470;SDS011;7321;50.802;4.336;2024-02-16T00:37:20;4.77;;;3.27;;
14470;SDS011;7321;50.802;4.336;2024-02-16T00:39:46;3.00;;;2.70;;
14470;SDS011;7321;50.802;4.336;2024-02-16T00:42:12;4.80;;;3.07;;
14470;SDS011;7321;50.802;4.336;2024-02-16T00:44:37;3.15;;;2.47;;
14470;SDS011;7321;50.802;4.336;2024-02-16T00:47:04;5.50;;;2.63;;
14470;SDS011;7321;50.802;4.336;2024-02-16T00:49:35;4.23;;;2.87;;
14470;SDS011;7321;50.802;4.336;2024-02-16T00:52:01;3.10;;;2.77;;
14470;SDS011;7321;50.802;4.336;2024-02-16T00:54:30;5.10;;;3.03;;
14470;SDS011;7321;50.802;4.336;2024-02-16T00:56:56;2.87;;;2.50;;
14470;SDS011;7321;50.802;4.336;2024-02-16T00:59:27;3.90;;;2.83;;
14470;SDS011;7321;50.802;4.336;2024-02-16T01:01:53;4.67;;;2.80;;
14470;SDS011;7321;50.802;4.336;2024-02-16T01:04:19;3.30;;;3.00;;
14470;SDS011;7321;50.802;4.336;2024-02-16T01:06:45;3.67;;;3.00;;
14470;SDS011;7321;50.802;4.336;2024-02-16T01:09:11;4.13;;;2.50;;
14470;SDS011;7321;50.802;4.336;2024-02-16T01:11:39;3.40;;;2.73;;
14470;SDS011;7321;50.802;4.336;2024-02-16T01:14:06;3.63;;;2.70;;
14470;SDS011;7321;50.802;4.336;2024-02-16T01:16:32;5.37;;;3.00;;
14470;SDS011;7321;50.802;4.336;2024-02-16T01:18:58;4.03;;;2.70;;
14470;SDS011;7321;50.802;4.336;2024-02-16T01:21:24;5.20;;;3.00;;
14470;SDS011;7321;50.802;4.336;2024-02-16T01:23:50;3.80;;;2.90;;
14470;SDS011;7321;50.802;4.336;2024-02-16T01:26:15;3.77;;;2.90;;
14470;SDS011;7321;50.802;4.336;2024-02-16T01:28:41;3.57;;;2.97;;
14470;SDS011;7321;50.802;4.336;2024-02-16T01:31:07;3.23;;;2.93;;
14470;SDS011;7321;50.802;4.336;2024-02-16T01:33:35;3.40;;;3.10;;
14470;SDS011;7321;50.802;4.336;2024-02-16T01:36:02;4.13;;;2.90;;
14470;SDS011;7321;50.802;4.336;2024-02-16T01:38:28;4.93;;;3.20;;
14470;SDS011;7321;50.802;4.336;2024-02-16T01:40:54;3.43;;;3.13;;
14470;SDS011;7321;50.802;4.336;2024-02-16T01:43:20;3.00;;;2.70;;
14470;SDS011;7321;50.802;4.336;2024-02-16T01:45:46;3.60;;;3.20;;
14470;SDS011;7321;50.802;4.336;2024-02-16T01:48:12;3.93;;;3.13;;
14470;SDS011;7321;50.802;4.336;2024-02-16T01:50:40;3.60;;;3.10;;
14470;SDS011;7321;50.802;4.336;2024-02-16T01:53:07;6.27;;;3.33;;
14470;SDS011;7321;50.802;4.336;2024-02-16T01:55:34;3.37;;;2.87;;
14470;SDS011;7321;50.802;4.336;2024-02-16T01:58:00;3.20;;;2.90;;
14470;SDS011;7321;50.802;4.336;2024-02-16T02:00:27;3.93;;;2.73;;
14470;SDS011;7321;50.802;4.336;2024-02-16T02:02:53;4.87;;;3.07;;
14470;SDS011;7321;50.802;4.336;2024-02-16T02:05:18;3.67;;;3.10;;
14470;SDS011;7321;50.802;4.336;2024-02-16T02:07:44;5.53;;;2.90;;
14470;SDS011;7321;50.802;4.336;2024-02-16T02:10:10;3.13;;;2.87;;
14470;SDS011;7321;50.802;4.336;2024-02-16T02:12:39;3.70;;;3.40;;
14470;SDS011;7321;50.802;4.336;2024-02-16T02:15:07;6.53;;;3.33;;
14470;SDS011;7321;50.802;4.336;2024-02-16T02:17:34;4.80;;;3.00;;
14470;SDS011;7321;50.802;4.336;2024-02-16T02:20:00;3.43;;;2.93;;
14470;SDS011;7321;50.802;4.336;2024-02-16T02:22:27;4.03;;;3.00;;
14470;SDS011;7321;50.802;4.336;2024-02-16T02:24:53;4.03;;;3.10;;
14470;SDS011;7321;50.802;4.336;2024-02-16T02:27:20;3.63;;;3.03;;
14470;SDS011;7321;50.802;4.336;2024-02-16T02:29:46;3.83;;;2.87;;
14470;SDS011;7321;50.802;4.336;2024-02-16T02:32:13;5.47;;;3.38;;
14470;SDS011;7321;50.802;4.336;2024-02-16T02:34:39;4.43;;;3.10;;
14470;SDS011;7321;50.802;4.336;2024-02-16T02:37:05;3.00;;;2.67;;
14470;SDS011;7321;50.802;4.336;2024-02-16T02:39:31;4.67;;;3.20;;
14470;SDS011;7321;50.802;4.336;2024-02-16T02:41:57;5.20;;;3.10;;
14470;SDS011;7321;50.802;4.336;2024-02-16T02:44:24;3.37;;;3.07;;
14470;SDS011;7321;50.802;4.336;2024-02-16T02:46:50;3.93;;;2.73;;
14470;SDS011;7321;50.802;4.336;2024-02-16T02:49:16;5.07;;;3.40;;
14470;SDS011;7321;50.802;4.336;2024-02-16T02:51:41;3.23;;;2.90;;
14470;SDS011;7321;50.802;4.336;2024-02-16T02:54:07;4.70;;;3.50;;
14470;SDS011;7321;50.802;4.336;2024-02-16T02:56:33;4.83;;;3.33;;
14470;SDS011;7321;50.802;4.336;2024-02-16T02:58:59;3.47;;;3.13;;
14470;SDS011;7321;50.802;4.336;2024-02-16T03:01:24;4.93;;;3.23;;
14470;SDS011;7321;50.802;4.336;2024-02-16T03:03:50;5.03;;;3.47;;
14470;SDS011;7321;50.802;4.336;2024-02-16T03:06:19;7.23;;;3.30;;
14470;SDS011;7321;50.802;4.336;2024-02-16T03:08:45;4.93;;;3.33;;
14470;SDS011;7321;50.802;4.336;2024-02-16T03:11:11;4.77;;;3.30;;
14470;SDS011;7321;50.802;4.336;2024-02-16T03:13:37;5.33;;;3.43;;
14470;SDS011;7321;50.802;4.336;2024-02-16T03:16:03;4.03;;;3.13;;
14470;SDS011;7321;50.802;4.336;2024-02-16T03:18:29;4.50;;;3.37;;
14470;SDS011;7321;50.802;4.336;2024-02-16T03:20:56;6.47;;;3.67;;
14470;SDS011;7321;50.802;4.336;2024-02-16T03:23:22;7.00;;;3.90;;
14470;SDS011;7321;50.802;4.336;2024-02-16T03:25:48;4.67;;;3.10;;
14470;SDS011;7321;50.802;4.336;2024-02-16T03:28:14;6.70;;;3.50;;
14470;SDS011;7321;50.802;4.336;2024-02-16T03:30:40;9.90;;;3.53;;
14470;SDS011;7321;50.802;4.336;2024-02-16T03:33:07;5.70;;;3.80;;
14470;SDS011;7321;50.802;4.336;2024-02-16T03:35:34;3.93;;;2.83;;
14470;SDS011;7321;50.802;4.336;2024-02-16T03:38:00;3.47;;;2.87;;
14470;SDS011;7321;50.802;4.336;2024-02-16T03:40:26;6.20;;;3.23;;
14470;SDS011;7321;50.802;4.336;2024-02-16T03:42:54;6.17;;;3.20;;
14470;SDS011;7321;50.802;4.336;2024-02-16T03:45:20;4.83;;;3.67;;
14470;SDS011;7321;50.802;4.336;2024-02-16T03:47:46;4.00;;;3.10;;
14470;SDS011;7321;50.802;4.336;2024-02-16T03:50:17;5.13;;;3.50;;
14470;SDS011;7321;50.802;4.336;2024-02-16T03:52:47;4.93;;;3.47;;
14470;SDS011;7321;50.802;4.336;2024-02-16T03:55:13;5.00;;;3.50;;
14470;SDS011;7321;50.802;4.336;2024-02-16T03:57:39;3.40;;;3.00;;
14470;SDS011;7321;50.802;4.336;2024-02-16T04:00:07;5.10;;;3.22;;
14470;SDS011;7321;50.802;4.336;2024-02-16T04:02:33;4.87;;;3.43;;
14470;SDS011;7321;50.802;4.336;2024-02-16T04:04:59;6.60;;;3.47;;
14470;SDS011;7321;50.802;4.336;2024-02-16T04:07:25;5.83;;;3.17;;
14470;SDS011;7321;50.802;4.336;2024-02-16T04:09:50;4.73;;;3.23;;
14470;SDS011;7321;50.802;4.336;2024-02-16T04:12:16;4.00;;;3.43;;
14470;SDS011;7321;50.802;4.336;2024-02-16T04:14:42;4.20;;;3.13;;
14470;SDS011;7321;50.802;4.336;2024-02-16T04:17:09;4.17;;;3.07;;
14470;SDS011;7321;50.802;4.336;2024-02-16T04:19:36;6.13;;;3.23;;
14470;SDS011;7321;50.802;4.336;2024-02-16T04:22:02;5.53;;;3.57;;
14470;SDS011;7321;50.802;4.336;2024-02-16T04:24:28;4.37;;;3.33;;
14470;SDS011;7321;50.802;4.336;2024-02-16T04:26:55;7.03;;;3.87;;
14470;SDS011;7321;50.802;4.336;2024-02-16T04:29:20;4.50;;;3.23;;
14470;SDS011;7321;50.802;4.336;2024-02-16T04:31:46;6.82;;;3.58;;
14470;SDS011;7321;50.802;4.336;2024-02-16T04:34:13;6.07;;;3.77;;
14470;SDS011;7321;50.802;4.336;2024-02-16T04:36:39;5.20;;;3.58;;
14470;SDS011;7321;50.802;4.336;2024-02-16T04:39:06;6.25;;;3.28;;
14470;SDS011;7321;50.802;4.336;2024-02-16T04:41:31;6.20;;;3.10;;
14470;SDS011;7321;50.802;4.336;2024-02-16T04:43:57;4.50;;;3.53;;
14470;SDS011;7321;50.802;4.336;2024-02-16T04:46:23;5.97;;;3.43;;
14470;SDS011;7321;50.802;4.336;2024-02-16T04:48:49;5.97;;;3.93;;
14470;SDS011;7321;50.802;4.336;2024-02-16T04:51:15;6.20;;;3.50;;
14470;SDS011;7321;50.802;4.336;2024-02-16T04:53:40;3.87;;;3.40;;
14470;SDS011;7321;50.802;4.336;2024-02-16T04:56:06;4.30;;;3.57;;
14470;SDS011;7321;50.802;4.336;2024-02-16T04:58:32;5.37;;;3.63;;
14470;SDS011;7321;50.802;4.336;2024-02-16T05:01:01;5.53;;;3.70;;
14470;SDS011;7321;50.802;4.336;2024-02-16T05:03:32;5.07;;;3.60;;
14470;SDS011;7321;50.802;4.336;2024-02-16T05:05:57;4.50;;;3.13;;
14470;SDS011;7321;50.802;4.336;2024-02-16T05:08:25;6.83;;;3.53;;
14470;SDS011;7321;50.802;4.336;2024-02-16T05:10:50;5.30;;;3.17;;
14470;SDS011;7321;50.802;4.336;2024-02-16T05:13:16;5.83;;;3.13;;
14470;SDS011;7321;50.802;4.336;2024-02-16T05:15:42;8.00;;;3.23;;
14470;SDS011;7321;50.802;4.336;2024-02-16T05:18:08;3.73;;;3.40;;
14470;SDS011;7321;50.802;4.336;2024-02-16T05:20:37;4.60;;;3.30;;
14470;SDS011;7321;50.802;4.336;2024-02-16T05:23:03;7.37;;;3.83;;
14470;SDS011;7321;50.802;4.336;2024-02-16T05:25:32;6.20;;;3.50;;
14470;SDS011;7321;50.802;4.336;2024-02-16T05:27:57;7.03;;;3.40;;
14470;SDS011;7321;50.802;4.336;2024-02-16T05:30:24;6.53;;;3.77;;
14470;SDS011;7321;50.802;4.336;2024-02-16T05:32:50;5.80;;;3.63;;
14470;SDS011;7321;50.802;4.336;2024-02-16T05:35:18;3.93;;;3.50;;
14470;SDS011;7321;50.802;4.336;2024-02-16T05:37:44;6.73;;;4.10;;
14470;SDS011;7321;50.802;4.336;2024-02-16T05:40:14;5.50;;;3.57;;
14470;SDS011;7321;50.802;4.336;2024-02-16T05:42:54;6.37;;;3.77;;
14470;SDS011;7321;50.802;4.336;2024-02-16T05:45:23;6.55;;;3.90;;
14470;SDS011;7321;50.802;4.336;2024-02-16T05:47:49;6.60;;;3.93;;
14470;SDS011;7321;50.802;4.336;2024-02-16T05:50:15;6.33;;;3.60;;
14470;SDS011;7321;50.802;4.336;2024-02-16T05:52:43;6.63;;;3.93;;
14470;SDS011;7321;50.802;4.336;2024-02-16T05:55:09;9.25;;;3.83;;
14470;SDS011;7321;50.802;4.336;2024-02-16T05:57:36;5.00;;;3.80;;
14470;SDS011;7321;50.802;4.336;2024-02-16T06:00:03;6.40;;;3.87;;
14470;SDS011;7321;50.802;4.336;2024-02-16T06:02:31;6.23;;;4.03;;
14470;SDS011;7321;50.802;4.336;2024-02-16T06:05:00;6.37;;;3.87;;
14470;SDS011;7321;50.802;4.336;2024-02-16T06:07:27;4.33;;;3.70;;
14470;SDS011;7321;50.802;4.336;2024-02-16T06:09:54;6.22;;;3.97;;
14470;SDS011;7321;50.802;4.336;2024-02-16T06:12:21;7.37;;;4.63;;
14470;SDS011;7321;50.802;4.336;2024-02-16T06:14:46;6.40;;;4.10;;
14470;SDS011;7321;50.802;4.336;2024-02-16T06:17:13;7.03;;;4.10;;
14470;SDS011;7321;50.802;4.336;2024-02-16T06:19:40;5.37;;;3.80;;
14470;SDS011;7321;50.802;4.336;2024-02-16T06:22:06;5.30;;;4.00;;
14470;SDS011;7321;50.802;4.336;2024-02-16T06:24:33;8.80;;;4.20;;
14470;SDS011;7321;50.802;4.336;2024-02-16T06:26:59;6.70;;;4.20;;
14470;SDS011;7321;50.802;4.336;2024-02-16T06:29:25;8.33;;;4.80;;
14470;SDS011;7321;50.802;4.336;2024-02-16T06:31:51;5.97;;;4.27;;
14470;SDS011;7321;50.802;4.336;2024-02-16T06:34:17;5.43;;;4.00;;
14470;SDS011;7321;50.802;4.336;2024-02-16T06:36:44;7.83;;;5.07;;
14470;SDS011;7321;50.802;4.336;2024-02-16T06:39:10;6.00;;;4.47;;
14470;SDS011;7321;50.802;4.336;2024-02-16T06:41:36;7.17;;;4.40;;
14470;SDS011;7321;50.802;4.336;2024-02-16T06:44:03;5.93;;;4.47;;
14470;SDS011;7321;50.802;4.336;2024-02-16T06:46:30;6.27;;;4.67;;
14470;SDS011;7321;50.802;4.336;2024-02-16T06:48:55;7.43;;;5.20;;
14470;SDS011;7321;50.802;4.336;2024-02-16T06:51:22;6.40;;;4.60;;
14470;SDS011;7321;50.802;4.336;2024-02-16T06:53:49;8.37;;;5.30;;
14470;SDS011;7321;50.802;4.336;2024-02-16T06:56:15;8.77;;;4.97;;
14470;SDS011;7321;50.802;4.336;2024-02-16T06:58:41;9.23;;;5.17;;
14470;SDS011;7321;50.802;4.336;2024-02-16T07:01:07;6.63;;;4.40;;
14470;SDS011;7321;50.802;4.336;2024-02-16T07:03:34;8.27;;;4.80;;
14470;SDS011;7321;50.802;4.336;2024-02-16T07:06:02;7.90;;;5.27;;
14470;SDS011;7321;50.802;4.336;2024-02-16T07:08:28;9.40;;;5.77;;
14470;SDS011;7321;50.802;4.336;2024-02-16T07:10:54;6.43;;;5.07;;
14470;SDS011;7321;50.802;4.336;2024-02-16T07:13:22;10.97;;;5.83;;
14470;SDS011;7321;50.802;4.336;2024-02-16T07:15:47;9.63;;;5.33;;
14470;SDS011;7321;50.802;4.336;2024-02-16T07:18:14;9.73;;;5.57;;
14470;SDS011;7321;50.802;4.336;2024-02-16T07:20:40;11.00;;;4.97;;
14470;SDS011;7321;50.802;4.336;2024-02-16T07:23:06;9.23;;;5.83;;
14470;SDS011;7321;50.802;4.336;2024-02-16T07:25:34;14.07;;;6.10;;
14470;SDS011;7321;50.802;4.336;2024-02-16T07:28:00;11.87;;;6.00;;
14470;SDS011;7321;50.802;4.336;2024-02-16T07:30:26;15.83;;;5.87;;
14470;SDS011;7321;50.802;4.336;2024-02-16T07:32:52;10.80;;;6.30;;
14470;SDS011;7321;50.802;4.336;2024-02-16T07:35:18;11.43;;;5.93;;
14470;SDS011;7321;50.802;4.336;2024-02-16T07:37:44;11.07;;;6.13;;
14470;SDS011;7321;50.802;4.336;2024-02-16T07:40:10;9.03;;;5.37;;
14470;SDS011;7321;50.802;4.336;2024-02-16T07:42:39;11.43;;;6.20;;
14470;SDS011;7321;50.802;4.336;2024-02-16T07:45:05;9.93;;;6.20;;
14470;SDS011;7321;50.802;4.336;2024-02-16T07:47:32;11.23;;;6.73;;
14470;SDS011;7321;50.802;4.336;2024-02-16T07:49:58;14.33;;;7.70;;
14470;SDS011;7321;50.802;4.336;2024-02-16T07:52:23;11.00;;;6.77;;
14470;SDS011;7321;50.802;4.336;2024-02-16T07:54:49;12.10;;;6.90;;
14470;SDS011;7321;50.802;4.336;2024-02-16T07:57:17;13.90;;;7.30;;
14470;SDS011;7321;50.802;4.336;2024-02-16T07:59:43;11.13;;;6.70;;
14470;SDS011;7321;50.802;4.336;2024-02-16T08:02:09;11.03;;;6.47;;
14470;SDS011;7321;50.802;4.336;2024-02-16T08:04:35;12.80;;;6.70;;
14470;SDS011;7321;50.802;4.336;2024-02-16T08:07:01;13.23;;;6.00;;
14470;SDS011;7321;50.802;4.336;2024-02-16T08:09:27;10.53;;;5.83;;
14470;SDS011;7321;50.802;4.336;2024-02-16T08:11:53;9.30;;;5.90;;
14470;SDS011;7321;50.802;4.336;2024-02-16T08:14:18;11.87;;;6.63;;
14470;SDS011;7321;50.802;4.336;2024-02-16T08:16:44;11.53;;;5.93;;
14470;SDS011;7321;50.802;4.336;2024-02-16T08:19:10;10.93;;;5.50;;
14470;SDS011;7321;50.802;4.336;2024-02-16T08:21:39;10.30;;;5.70;;
14470;SDS011;7321;50.802;4.336;2024-02-16T08:24:05;15.10;;;5.37;;
14470;SDS011;7321;50.802;4.336;2024-02-16T08:26:31;8.00;;;5.97;;
14470;SDS011;7321;50.802;4.336;2024-02-16T08:28:57;11.67;;;5.77;;
14470;SDS011;7321;50.802;4.336;2024-02-16T08:31:23;9.43;;;5.87;;
14470;SDS011;7321;50.802;4.336;2024-02-16T08:33:49;15.67;;;7.30;;
14470;SDS011;7321;50.802;4.336;2024-02-16T08:36:14;9.77;;;6.67;;
14470;SDS011;7321;50.802;4.336;2024-02-16T08:38:40;12.63;;;6.73;;
14470;SDS011;7321;50.802;4.336;2024-02-16T08:41:06;15.20;;;7.23;;
14470;SDS011;7321;50.802;4.336;2024-02-16T08:43:32;12.20;;;6.80;;
14470;SDS011;7321;50.802;4.336;2024-02-16T08:45:58;10.80;;;6.53;;
14470;SDS011;7321;50.802;4.336;2024-02-16T08:48:26;13.20;;;7.60;;
14470;SDS011;7321;50.802;4.336;2024-02-16T08:50:52;15.07;;;7.27;;
14470;SDS011;7321;50.802;4.336;2024-02-16T08:53:18;13.67;;;7.60;;
14470;SDS011;7321;50.802;4.336;2024-02-16T08:55:43;17.03;;;8.80;;
14470;SDS011;7321;50.802;4.336;2024-02-16T08:58:10;14.57;;;8.27;;
14470;SDS011;7321;50.802;4.336;2024-02-16T09:00:36;16.43;;;8.97;;
14470;SDS011;7321;50.802;4.336;2024-02-16T09:03:01;17.40;;;9.07;;
14470;SDS011;7321;50.802;4.336;2024-02-16T09:05:27;14.87;;;8.57;;
14470;SDS011;7321;50.802;4.336;2024-02-16T09:07:53;12.27;;;7.10;;
14470;SDS011;7321;50.802;4.336;2024-02-16T09:10:19;11.57;;;6.57;;
14470;SDS011;7321;50.802;4.336;2024-02-16T09:12:45;15.30;;;7.70;;
14470;SDS011;7321;50.802;4.336;2024-02-16T09:15:11;11.83;;;7.37;;
14470;SDS011;7321;50.802;4.336;2024-02-16T09:17:37;10.67;;;7.03;;
14470;SDS011;7321;50.802;4.336;2024-02-16T09:20:03;13.03;;;7.77;;
14470;SDS011;7321;50.802;4.336;2024-02-16T09:22:30;11.83;;;7.20;;
14470;SDS011;7321;50.802;4.336;2024-02-16T09:24:55;9.57;;;7.13;;
14470;SDS011;7321;50.802;4.336;2024-02-16T09:27:25;10.17;;;7.00;;
14470;SDS011;7321;50.802;4.336;2024-02-16T09:29:51;11.03;;;6.70;;
14470;SDS011;7321;50.802;4.336;2024-02-16T09:32:17;12.70;;;7.40;;
14470;SDS011;7321;50.802;4.336;2024-02-16T09:34:43;12.37;;;7.50;;
14470;SDS011;7321;50.802;4.336;2024-02-16T09:37:09;14.60;;;7.33;;
14470;SDS011;7321;50.802;4.336;2024-02-16T09:39:36;14.33;;;7.97;;
14470;SDS011;7321;50.802;4.336;2024-02-16T09:42:02;13.90;;;8.37;;
14470;SDS011;7321;50.802;4.336;2024-02-16T09:44:28;13.87;;;7.90;;
14470;SDS011;7321;50.802;4.336;2024-02-16T09:46:55;15.50;;;7.77;;
14470;SDS011;7321;50.802;4.336;2024-02-16T09:49:22;14.10;;;7.67;;
14470;SDS011;7321;50.802;4.336;2024-02-16T09:51:48;16.87;;;8.23;;
14470;SDS011;7321;50.802;4.336;2024-02-16T09:54:14;14.67;;;7.47;;
14470;SDS011;7321;50.802;4.336;2024-02-16T09:56:40;13.03;;;7.23;;
14470;SDS011;7321;50.802;4.336;2024-02-16T09:59:07;13.10;;;7.40;;
14470;SDS011;7321;50.802;4.336;2024-02-16T10:01:33;11.13;;;7.30;;
14470;SDS011;7321;50.802;4.336;2024-02-16T10:04:08;11.80;;;8.53;;
14470;SDS011;7321;50.802;4.336;2024-02-16T10:06:47;15.40;;;8.03;;
14470;SDS011;7321;50.802;4.336;2024-02-16T10:09:26;12.37;;;6.87;;
14470;SDS011;7321;50.802;4.336;2024-02-16T10:11:57;11.50;;;7.60;;
14470;SDS011;7321;50.802;4.336;2024-02-16T10:14:23;10.30;;;6.67;;
14470;SDS011;7321;50.802;4.336;2024-02-16T10:17:04;10.80;;;6.83;;
14470;SDS011;7321;50.802;4.336;2024-02-16T10:19:31;12.07;;;7.53;;
14470;SDS011;7321;50.802;4.336;2024-02-16T10:22:09;10.50;;;6.83;;
14470;SDS011;7321;50.802;4.336;2024-02-16T10:24:36;13.20;;;7.50;;
14470;SDS011;7321;50.802;4.336;2024-02-16T10:27:13;15.07;;;10.17;;
14470;SDS011;7321;50.802;4.336;2024-02-16T10:29:46;14.17;;;8.33;;
14470;SDS011;7321;50.802;4.336;2024-02-16T10:32:15;13.97;;;7.30;;
14470;SDS011;7321;50.802;4.336;2024-02-16T10:34:41;12.10;;;8.00;;
14470;SDS011;7321;50.802;4.336;2024-02-16T10:37:11;9.90;;;7.43;;
14470;SDS011;7321;50.802;4.336;2024-02-16T10:39:39;13.52;;;7.30;;
14470;SDS011;7321;50.802;4.336;2024-02-16T10:42:06;12.30;;;8.00;;
14470;SDS011;7321;50.802;4.336;2024-02-16T10:44:33;14.50;;;8.10;;
14470;SDS011;7321;50.802;4.336;2024-02-16T10:47:00;13.25;;;8.15;;
14470;SDS011;7321;50.802;4.336;2024-02-16T10:49:26;13.10;;;7.97;;
14470;SDS011;7321;50.802;4.336;2024-02-16T10:51:53;12.50;;;8.30;;
14470;SDS011;7321;50.802;4.336;2024-02-16T10:54:23;13.37;;;8.33;;
14470;SDS011;7321;50.802;4.336;2024-02-16T10:56:56;15.83;;;8.83;;
14470;SDS011;7321;50.802;4.336;2024-02-16T10:59:22;14.07;;;8.40;;
14470;SDS011;7321;50.802;4.336;2024-02-16T11:01:48;14.13;;;8.07;;
14470;SDS011;7321;50.802;4.336;2024-02-16T11:04:24;14.13;;;8.27;;
14470;SDS011;7321;50.802;4.336;2024-02-16T11:06:54;11.83;;;8.83;;
14470;SDS011;7321;50.802;4.336;2024-02-16T11:12:03;17.90;;;9.47;;
14470;SDS011;7321;50.802;4.336;2024-02-16T11:17:09;16.03;;;9.43;;
14470;SDS011;7321;50.802;4.336;2024-02-16T11:19:45;12.77;;;9.50;;
14470;SDS011;7321;50.802;4.336;2024-02-16T11:22:16;15.27;;;10.10;;
14470;SDS011;7321;50.802;4.336;2024-02-16T11:24:49;18.35;;;10.20;;
14470;SDS011;7321;50.802;4.336;2024-02-16T11:27:19;18.03;;;10.20;;
14470;SDS011;7321;50.802;4.336;2024-02-16T11:29:45;18.27;;;10.10;;
14470;SDS011;7321;50.802;4.336;2024-02-16T11:32:11;20.20;;;11.43;;
14470;SDS011;7321;50.802;4.336;2024-02-16T11:34:37;16.43;;;10.97;;
14470;SDS011;7321;50.802;4.336;2024-02-16T11:37:04;13.73;;;10.60;;
14470;SDS011;7321;50.802;4.336;2024-02-16T11:39:30;28.03;;;17.20;;
14470;SDS011;7321;50.802;4.336;2024-02-16T11:42:02;21.73;;;12.30;;
14470;SDS011;7321;50.802;4.336;2024-02-16T11:44:29;17.97;;;12.67;;
14470;SDS011;7321;50.802;4.336;2024-02-16T11:46:57;15.27;;;11.13;;
14470;SDS011;7321;50.802;4.336;2024-02-16T11:49:23;15.17;;;11.87;;
14470;SDS011;7321;50.802;4.336;2024-02-16T11:51:49;15.07;;;11.20;;
14470;SDS011;7321;50.802;4.336;2024-02-16T11:54:16;16.37;;;11.80;;
14470;SDS011;7321;50.802;4.336;2024-02-16T11:56:45;14.27;;;11.93;;
14470;SDS011;7321;50.802;4.336;2024-02-16T11:59:13;15.50;;;11.80;;
14470;SDS011;7321;50.802;4.336;2024-02-16T12:01:49;24.47;;;16.70;;
14470;SDS011;7321;50.802;4.336;2024-02-16T12:04:29;16.40;;;10.43;;
14470;SDS011;7321;50.802;4.336;2024-02-16T12:06:59;18.57;;;10.97;;
14470;SDS011;7321;50.802;4.336;2024-02-16T12:09:26;11.43;;;9.77;;
14470;SDS011;7321;50.802;4.336;2024-02-16T12:11:53;10.07;;;8.70;;
14470;SDS011;7321;50.802;4.336;2024-02-16T12:14:23;11.47;;;9.03;;
14470;SDS011;7321;50.802;4.336;2024-02-16T12:19:21;9.90;;;8.37;;
14470;SDS011;7321;50.802;4.336;2024-02-16T12:22:20;12.57;;;10.47;;
14470;SDS011;7321;50.802;4.336;2024-02-16T12:24:44;8.87;;;7.50;;
14470;SDS011;7321;50.802;4.336;2024-02-16T12:27:19;8.00;;;7.23;;
14470;SDS011;7321;50.802;4.336;2024-02-16T12:29:45;8.10;;;6.90;;
14470;SDS011;7321;50.802;4.336;2024-02-16T12:32:10;8.57;;;7.17;;
14470;SDS011;7321;50.802;4.336;2024-02-16T12:34:36;8.13;;;7.33;;
14470;SDS011;7321;50.802;4.336;2024-02-16T12:37:06;8.07;;;6.70;;
14470;SDS011;7321;50.802;4.336;2024-02-16T12:39:33;8.20;;;7.00;;
14470;SDS011;7321;50.802;4.336;2024-02-16T12:41:59;10.33;;;7.37;;
14470;SDS011;7321;50.802;4.336;2024-02-16T12:44:25;7.43;;;6.70;;
14470;SDS011;7321;50.802;4.336;2024-02-16T12:46:51;7.83;;;6.57;;
14470;SDS011;7321;50.802;4.336;2024-02-16T12:49:17;7.67;;;6.97;;
14470;SDS011;7321;50.802;4.336;2024-02-16T12:51:46;10.17;;;7.50;;
14470;SDS011;7321;50.802;4.336;2024-02-16T12:54:16;11.50;;;9.50;;
14470;SDS011;7321;50.802;4.336;2024-02-16T12:56:45;7.80;;;7.07;;
14470;SDS011;7321;50.802;4.336;2024-02-16T12:59:11;8.43;;;7.70;;
14470;SDS011;7321;50.802;4.336;2024-02-16T13:01:37;8.37;;;7.60;;
14470;SDS011;7321;50.802;4.336;2024-02-16T13:04:03;8.77;;;7.37;;
14470;SDS011;7321;50.802;4.336;2024-02-16T13:06:29;8.20;;;7.40;;
14470;SDS011;7321;50.802;4.336;2024-02-16T13:08:55;9.73;;;8.70;;
14470;SDS011;7321;50.802;4.336;2024-02-16T13:11:21;9.57;;;8.67;;
14470;SDS011;7321;50.802;4.336;2024-02-16T13:13:47;9.33;;;8.40;;
14470;SDS011;7321;50.802;4.336;2024-02-16T13:16:12;10.90;;;9.80;;
14470;SDS011;7321;50.802;4.336;2024-02-16T13:18:39;9.70;;;8.80;;
14470;SDS011;7321;50.802;4.336;2024-02-16T13:21:04;15.77;;;14.47;;
14470;SDS011;7321;50.802;4.336;2024-02-16T13:23:30;12.00;;;10.23;;
14470;SDS011;7321;50.802;4.336;2024-02-16T13:25:56;12.97;;;11.77;;
14470;SDS011;7321;50.802;4.336;2024-02-16T13:28:22;11.73;;;10.53;;
14470;SDS011;7321;50.802;4.336;2024-02-16T13:30:48;9.40;;;8.40;;
14470;SDS011;7321;50.802;4.336;2024-02-16T13:33:14;11.07;;;8.47;;
14470;SDS011;7321;50.802;4.336;2024-02-16T13:35:39;9.00;;;8.10;;
14470;SDS011;7321;50.802;4.336;2024-02-16T13:38:05;8.90;;;7.80;;
14470;SDS011;7321;50.802;4.336;2024-02-16T13:40:31;10.00;;;8.80;;
14470;SDS011;7321;50.802;4.336;2024-02-16T13:42:59;8.17;;;7.47;;
14470;SDS011;7321;50.802;4.336;2024-02-16T13:45:47;9.30;;;8.33;;
14470;SDS011;7321;50.802;4.336;2024-02-16T13:48:15;8.43;;;7.63;;
14470;SDS011;7321;50.802;4.336;2024-02-16T13:50:43;8.77;;;6.73;;
14470;SDS011;7321;50.802;4.336;2024-02-16T13:53:13;7.17;;;6.57;;
14470;SDS011;7321;50.802;4.336;2024-02-16T13:55:39;7.13;;;6.43;;
14470;SDS011;7321;50.802;4.336;2024-02-16T13:58:09;7.80;;;6.53;;
14470;SDS011;7321;50.802;4.336;2024-02-16T14:00:36;6.50;;;5.90;;
14470;SDS011;7321;50.802;4.336;2024-02-16T14:03:03;6.70;;;6.10;;
14470;SDS011;7321;50.802;4.336;2024-02-16T14:05:30;6.20;;;5.60;;
14470;SDS011;7321;50.802;4.336;2024-02-16T14:07:57;6.83;;;6.07;;
14470;SDS011;7321;50.802;4.336;2024-02-16T14:10:22;6.67;;;5.97;;
14470;SDS011;7321;50.802;4.336;2024-02-16T14:12:48;6.03;;;5.43;;
14470;SDS011;7321;50.802;4.336;2024-02-16T14:15:14;5.93;;;5.33;;
14470;SDS011;7321;50.802;4.336;2024-02-16T14:17:43;6.53;;;5.50;;
14470;SDS011;7321;50.802;4.336;2024-02-16T14:20:10;7.00;;;5.83;;
14470;SDS011;7321;50.802;4.336;2024-02-16T14:22:36;6.03;;;5.50;;
14470;SDS011;7321;50.802;4.336;2024-02-16T14:25:02;5.90;;;4.57;;
14470;SDS011;7321;50.802;4.336;2024-02-16T14:27:28;5.07;;;4.60;;
14470;SDS011;7321;50.802;4.336;2024-02-16T14:29:55;5.30;;;4.80;;
14470;SDS011;7321;50.802;4.336;2024-02-16T14:32:21;4.00;;;3.70;;
14470;SDS011;7321;50.802;4.336;2024-02-16T14:34:47;5.20;;;4.20;;
14470;SDS011;7321;50.802;4.336;2024-02-16T14:37:12;17.63;;;15.83;;
14470;SDS011;7321;50.802;4.336;2024-02-16T14:39:38;4.53;;;4.13;;
14470;SDS011;7321;50.802;4.336;2024-02-16T14:42:04;4.20;;;3.47;;
14470;SDS011;7321;50.802;4.336;2024-02-16T14:44:30;3.37;;;3.07;;
14470;SDS011;7321;50.802;4.336;2024-02-16T14:46:56;3.57;;;3.27;;
14470;SDS011;7321;50.802;4.336;2024-02-16T14:49:22;4.13;;;3.73;;
14470;SDS011;7321;50.802;4.336;2024-02-16T14:51:52;4.33;;;3.90;;
14470;SDS011;7321;50.802;4.336;2024-02-16T14:54:18;3.90;;;3.60;;
14470;SDS011;7321;50.802;4.336;2024-02-16T14:56:44;5.22;;;3.85;;
14470;SDS011;7321;50.802;4.336;2024-02-16T14:59:10;4.10;;;3.70;;
14470;SDS011;7321;50.802;4.336;2024-02-16T15:01:36;3.60;;;3.30;;